Time;durP1;ratioP1;P1;durP2;ratioP2;P2;SDS_P1;SDS_P2;PMS_P1;PMS_P2;Temp;Humidity;BMP_temperature;BMP_pressure;BME280_temperature;BME280_humidity;BME280_pressure;Samples;Min_cycle;Max_cycle;Signal;HPM_P1;HPM_P2
2022/03/23 00:00:08;;;;;;;10.60;3.70;;;7.90;46.60;;;7.82;38.16;96097.63;5076939;28;20574;-56
2022/03/23 00:02:37;;;;;;;12.90;4.47;;;7.90;46.50;;;7.78;39.11;96097.91;5069100;28;20970;-55
2022/03/23 00:05:05;;;;;;;13.83;3.70;;;7.80;46.50;;;7.74;38.37;96099.84;5078870;28;20454;-56
2022/03/23 00:07:35;;;;;;;7.77;3.70;;;7.80;46.30;;;7.70;38.62;96101.00;5068876;28;20472;-56
2022/03/23 00:10:03;;;;;;;8.60;3.70;;;7.70;46.30;;;7.63;38.85;96097.88;5074508;28;20441;-56
2022/03/23 00:12:30;;;;;;;12.27;3.27;;;7.70;46.20;;;7.60;38.47;96094.59;5077279;28;20553;-56
2022/03/23 00:14:57;;;;;;;6.17;3.83;;;7.60;46.00;;;7.57;38.59;96100.03;5076808;28;20509;-56
2022/03/23 00:17:24;;;;;;;6.03;3.93;;;7.60;46.10;;;7.53;38.66;96094.97;5074879;28;20511;-56
2022/03/23 00:19:53;;;;;;;6.03;3.80;;;7.60;46.20;;;7.49;38.00;96103.94;5078074;28;20497;-56
2022/03/23 00:22:20;;;;;;;9.90;4.80;;;7.50;46.10;;;7.45;38.18;96098.97;5071024;28;20963;-57
2022/03/23 00:24:48;;;;;;;6.80;3.23;;;7.50;46.10;;;7.40;38.58;96095.78;5076250;28;20453;-56
2022/03/23 00:27:16;;;;;;;7.20;3.40;;;7.50;46.20;;;7.38;38.52;96093.25;5078777;28;20597;-56
2022/03/23 00:29:43;;;;;;;9.40;3.30;;;7.40;46.30;;;7.36;38.24;96102.97;5070456;28;20958;-55
2022/03/23 00:32:13;;;;;;;6.60;3.60;;;7.40;46.30;;;7.33;38.18;96095.31;5073869;28;20498;-56
2022/03/23 00:34:40;;;;;;;5.90;3.53;;;7.40;46.30;;;7.31;38.22;96098.00;5082753;28;20464;-56
2022/03/23 00:37:09;;;;;;;8.03;3.80;;;7.40;46.30;;;7.30;38.46;96098.09;5070904;28;20465;-57
2022/03/23 00:39:36;;;;;;;12.10;2.93;;;7.30;46.20;;;7.28;38.73;96099.94;5073404;28;20585;-56
2022/03/23 00:42:04;;;;;;;11.77;3.20;;;7.30;46.10;;;7.25;38.50;96098.38;5081094;28;20478;-56
2022/03/23 00:44:31;;;;;;;8.53;3.70;;;7.30;46.20;;;7.24;38.69;96099.28;5065125;28;20461;-55
2022/03/23 00:46:59;;;;;;;6.53;3.90;;;7.30;46.20;;;7.24;38.78;96099.28;5076089;28;20932;-56
2022/03/23 00:49:26;;;;;;;7.03;3.23;;;7.30;46.10;;;7.24;38.10;96093.22;5078020;28;20458;-57
2022/03/23 00:51:55;;;;;;;6.20;3.00;;;7.30;46.70;;;7.21;38.41;96099.47;5070151;28;20466;-56
2022/03/23 00:54:24;;;;;;;8.73;3.40;;;7.30;46.00;;;7.21;38.11;96104.69;5071257;28;20454;-57
2022/03/23 00:56:51;;;;;;;10.97;3.53;;;7.20;45.90;;;7.20;38.58;96104.78;5078983;28;20488;-55
2022/03/23 00:59:20;;;;;;;13.87;3.07;;;7.20;45.80;;;7.20;38.32;96110.03;5071613;28;20465;-55
2022/03/23 01:01:48;;;;;;;5.70;3.13;;;7.20;45.80;;;7.18;37.90;96095.25;5076628;28;20510;-57
2022/03/23 01:04:15;;;;;;;7.33;2.73;;;7.20;45.60;;;7.17;38.13;96104.03;5069407;28;20963;-57
2022/03/23 01:06:42;;;;;;;3.17;2.60;;;7.20;45.60;;;7.16;37.86;96099.72;5072938;28;21152;-56
2022/03/23 01:09:09;;;;;;;3.00;2.80;;;7.20;45.60;;;7.14;38.20;96099.00;5079873;28;20819;-56
2022/03/23 01:11:39;;;;;;;5.73;3.00;;;7.20;45.50;;;7.13;37.89;96101.69;5078158;28;20495;-56
2022/03/23 01:14:06;;;;;;;4.57;2.53;;;7.20;45.40;;;7.09;37.92;96098.38;5069677;28;20822;-55
2022/03/23 01:16:33;;;;;;;11.80;2.60;;;7.10;45.40;;;7.09;37.66;96094.94;5079418;28;21014;-56
2022/03/23 01:19:00;;;;;;;6.57;2.63;;;7.10;45.30;;;7.06;37.79;96092.50;5071797;28;20475;-55
2022/03/23 01:21:28;;;;;;;7.77;2.50;;;7.10;45.30;;;7.05;37.80;96089.06;5068979;28;20498;-56
2022/03/23 01:23:56;;;;;;;13.10;3.30;;;7.10;45.10;;;7.03;37.45;96087.44;5076760;28;20465;-57
2022/03/23 01:26:23;;;;;;;5.00;2.33;;;7.10;45.00;;;7.00;37.90;96088.44;5072145;28;20899;-56
2022/03/23 01:28:52;;;;;;;2.83;2.63;;;7.10;45.10;;;6.97;37.52;96081.66;5074070;28;20549;-56
2022/03/23 01:31:19;;;;;;;3.27;2.63;;;7.00;45.00;;;6.95;37.89;96078.25;5079223;28;20933;-55
2022/03/23 01:33:46;;;;;;;11.10;2.87;;;7.00;45.10;;;6.91;38.08;96073.28;5072227;28;20459;-56
2022/03/23 01:36:14;;;;;;;8.13;3.03;;;7.00;45.10;;;6.89;37.85;96076.00;5075429;28;20459;-55
2022/03/23 01:38:41;;;;;;;4.33;2.80;;;7.00;45.20;;;6.93;37.55;96074.06;5081247;28;20457;-55
2022/03/23 01:41:08;;;;;;;7.73;2.90;;;7.00;45.30;;;6.92;37.87;96082.81;5067690;28;20498;-56
2022/03/23 01:43:36;;;;;;;11.03;3.00;;;7.00;45.20;;;6.92;37.83;96072.38;5075278;28;20447;-55
2022/03/23 01:46:04;;;;;;;2.53;2.33;;;7.00;45.30;;;6.92;38.07;96077.59;5080066;28;20704;-56
2022/03/23 01:48:32;;;;;;;11.57;3.00;;;7.00;45.20;;;6.91;37.61;96075.91;5067133;28;20471;-55
2022/03/23 01:50:59;;;;;;;9.60;2.50;;;6.90;45.20;;;6.90;37.66;96084.69;5076696;28;20458;-55
2022/03/23 01:53:26;;;;;;;17.83;4.20;;;6.90;45.20;;;6.89;37.54;96083.00;5072101;28;20528;-56
2022/03/23 01:55:54;;;;;;;8.40;2.70;;;6.90;45.10;;;6.86;37.53;96083.19;5070650;28;20550;-55
2022/03/23 01:58:21;;;;;;;9.03;3.37;;;6.90;45.20;;;6.84;37.89;96085.03;5075090;28;20485;-56
2022/03/23 02:00:48;;;;;;;9.83;2.10;;;6.90;45.20;;;6.83;38.07;96084.19;5072810;28;21098;-56
2022/03/23 02:03:17;;;;;;;2.67;2.00;;;6.90;45.20;;;6.81;37.78;96079.03;5069470;28;20950;-55
2022/03/23 02:05:44;;;;;;;5.00;2.40;;;6.90;45.30;;;6.83;38.07;96078.94;5077502;28;20455;-57
2022/03/23 02:08:11;;;;;;;5.10;3.13;;;6.90;45.30;;;6.82;38.03;96072.88;5074845;28;20466;-57
2022/03/23 02:10:39;;;;;;;6.17;3.33;;;6.90;45.30;;;6.83;38.26;96073.72;5070784;28;20451;-58
2022/03/23 02:13:06;;;;;;;4.13;2.57;;;6.90;45.30;;;6.81;37.72;96076.41;5076316;28;20466;-55
2022/03/23 02:15:34;;;;;;;6.07;3.23;;;6.90;45.40;;;6.81;38.32;96070.38;5068796;28;20459;-57
2022/03/23 02:18:01;;;;;;;8.83;3.60;;;6.80;45.20;;;6.79;38.14;96073.06;5071751;28;21038;-57
2022/03/23 02:20:30;;;;;;;10.77;3.53;;;6.80;45.30;;;6.79;37.65;96075.69;5077658;28;20486;-57
2022/03/23 02:22:59;;;;;;;6.70;2.60;;;6.90;45.40;;;6.78;37.75;96078.38;5068848;28;20470;-55
2022/03/23 02:25:28;;;;;;;7.87;3.63;;;6.80;45.40;;;6.77;37.75;96080.16;5070307;28;20451;-57
2022/03/23 02:27:56;;;;;;;18.17;3.70;;;6.80;45.30;;;6.76;37.73;96081.06;5072850;28;21107;-56
2022/03/23 02:30:23;;;;;;;9.83;4.13;;;6.80;45.40;;;6.75;38.20;96076.78;5065386;28;20449;-55
2022/03/23 02:32:50;;;;;;;14.20;3.73;;;6.80;45.40;;;6.68;37.53;96078.06;5073736;28;20669;-56
2022/03/23 02:35:18;;;;;;;11.87;4.60;;;6.80;45.30;;;6.60;37.91;96083.72;5077115;28;20472;-57
2022/03/23 02:37:45;;;;;;;19.13;9.93;;;6.70;45.50;;;6.51;38.15;96078.16;5064244;28;20467;-56
2022/03/23 02:40:14;;;;;;;15.10;8.57;;;6.60;45.70;;;6.43;38.50;96082.03;5072972;28;20581;-57
2022/03/23 02:42:41;;;;;;;13.80;7.33;;;6.50;45.70;;;6.38;38.42;96085.81;5081212;28;20465;-57
2022/03/23 02:45:11;;;;;;;14.17;7.83;;;6.50;46.60;;;6.31;38.57;96076.66;5070308;28;20459;-56
2022/03/23 02:47:38;;;;;;;10.33;5.37;;;6.40;46.20;;;6.25;38.93;96083.03;5074544;28;20549;-56
2022/03/23 02:50:07;;;;;;;11.10;4.63;;;6.30;46.20;;;6.17;38.74;96080.00;5080037;28;20450;-55
2022/03/23 02:52:34;;;;;;;10.10;5.37;;;6.20;46.40;;;6.06;39.24;96094.47;5066397;28;20471;-55
2022/03/23 03:04:02;;;;;;;9.40;2.97;;;5.90;47.60;;;5.79;40.46;96085.47;5074822;28;20425;-57
2022/03/23 03:06:29;;;;;;;5.63;2.90;;;5.90;48.30;;;5.69;40.85;96088.56;5068465;28;20478;-57
2022/03/23 03:08:57;;;;;;;3.93;2.50;;;5.80;48.80;;;5.64;40.90;96085.34;5075521;28;20804;-57
2022/03/23 03:11:25;;;;;;;10.30;2.47;;;5.70;48.80;;;5.59;41.34;96084.72;5080706;28;20462;-55
2022/03/23 03:13:55;;;;;;;3.20;2.60;;;5.70;49.40;;;5.55;41.78;96084.03;5064324;28;20936;-56
2022/03/23 03:16:22;;;;;;;7.27;2.30;;;5.60;49.20;;;5.52;41.18;96088.59;5073280;28;20462;-56
2022/03/23 03:18:49;;;;;;;5.43;2.50;;;5.60;49.20;;;5.51;41.61;96086.91;5074366;28;20966;-56
2022/03/23 03:21:17;;;;;;;5.57;2.27;;;5.60;49.20;;;5.47;42.21;96090.56;5068609;28;20489;-55
2022/03/23 03:23:45;;;;;;;9.47;2.90;;;5.50;49.90;;;5.43;42.01;96083.84;5075954;28;20462;-57
2022/03/23 03:26:14;;;;;;;2.57;2.10;;;5.50;50.00;;;5.37;41.85;96091.03;5075258;28;21032;-55
2022/03/23 03:28:42;;;;;;;11.63;3.27;;;5.50;50.10;;;5.38;41.80;96090.13;5069717;28;20466;-58
2022/03/23 03:31:13;;;;;;;4.47;2.13;;;5.40;50.20;;;5.33;42.58;96086.91;5076360;28;20458;-58
2022/03/23 03:33:40;;;;;;;7.53;3.30;;;5.40;50.50;;;5.32;41.93;96087.81;5070596;28;20444;-56
2022/03/23 03:36:08;;;;;;;3.97;3.20;;;5.40;50.30;;;5.31;41.89;96086.13;5069344;28;20588;-56
2022/03/23 03:38:35;;;;;;;4.77;4.13;;;5.40;50.40;;;5.30;42.27;96084.47;5075358;28;20491;-56
2022/03/23 03:41:03;;;;;;;7.13;3.70;;;5.40;50.60;;;5.31;42.78;96086.13;5074566;28;20718;-56
2022/03/23 03:43:30;;;;;;;12.43;4.23;;;5.40;50.80;;;5.33;42.90;96086.06;5071557;28;20499;-57
2022/03/23 03:45:57;;;;;;;3.83;2.70;;;5.40;51.00;;;5.32;42.55;96077.41;5076135;28;20510;-56
2022/03/23 03:48:26;;;;;;;8.17;3.17;;;5.40;50.80;;;5.32;42.61;96080.00;5063905;28;20819;-56
2022/03/23 03:50:53;;;;;;;17.93;3.53;;;5.40;50.90;;;5.33;42.49;96089.53;5072633;28;20447;-57
2022/03/23 03:53:20;;;;;;;7.67;3.10;;;5.40;50.90;;;5.34;43.01;96093.81;5071919;28;20523;-56
2022/03/23 03:55:48;;;;;;;11.03;3.47;;;5.40;51.20;;;5.33;41.96;96083.44;5072919;28;20458;-56
2022/03/23 03:58:17;;;;;;;3.90;3.50;;;5.40;50.70;;;5.33;43.16;96089.53;5073402;28;20478;-56
2022/03/23 04:00:44;;;;;;;8.47;3.03;;;5.40;51.60;;;5.33;42.26;96101.72;5077408;28;20490;-55
2022/03/23 04:03:12;;;;;;;9.83;4.00;;;5.40;50.90;;;5.31;42.85;96088.75;5070732;28;20524;-55
2022/03/23 04:05:41;;;;;;;12.27;4.90;;;5.40;51.30;;;5.30;43.33;96097.50;5077268;28;20536;-56
2022/03/23 04:08:08;;;;;;;10.53;3.80;;;5.40;51.90;;;5.30;42.67;96097.50;5079636;28;20470;-56
2022/03/23 04:10:36;;;;;;;20.57;4.53;;;5.40;51.30;;;5.31;42.47;96090.50;5071011;28;20810;-57
2022/03/23 04:13:03;;;;;;;8.83;4.17;;;5.40;50.90;;;5.34;43.03;96090.34;5075340;28;20478;-59
2022/03/23 04:15:31;;;;;;;18.57;4.40;;;5.40;51.60;;;5.35;43.18;96090.28;5079848;28;20790;-56
2022/03/23 04:17:58;;;;;;;9.83;3.80;;;5.40;51.80;;;5.35;43.87;96092.88;5071103;28;20509;-56
2022/03/23 04:20:25;;;;;;;6.17;3.53;;;5.40;52.30;;;5.34;43.01;96093.81;5075622;28;20492;-57
2022/03/23 04:22:54;;;;;;;7.73;3.00;;;5.40;51.80;;;5.33;43.50;96093.88;5078464;28;20463;-55
2022/03/23 04:25:21;;;;;;;8.27;3.50;;;5.40;52.60;;;5.33;43.37;96094.75;5069448;28;20469;-56
2022/03/23 04:27:50;;;;;;;10.90;3.20;;;5.40;52.60;;;5.37;43.24;96085.81;5079113;28;20488;-58
2022/03/23 04:30:18;;;;;;;6.63;3.03;;;5.40;52.00;;;5.48;43.54;96089.66;5076155;28;20894;-56
2022/03/23 04:32:45;;;;;;;4.90;2.87;;;5.50;52.30;;;5.54;43.05;96089.34;5069652;28;20478;-56
2022/03/23 04:35:15;;;;;;;9.37;3.40;;;5.60;52.10;;;5.59;43.00;96087.34;5077403;28;20507;-57
2022/03/23 04:37:43;;;;;;;7.17;2.87;;;5.70;51.70;;;5.62;42.93;96089.78;5076023;28;21048;-56
2022/03/23 04:40:14;;;;;;;7.40;3.10;;;5.70;51.70;;;5.66;42.80;96093.94;5068248;28;20459;-56
2022/03/23 04:42:41;;;;;;;11.10;4.70;;;5.70;51.60;;;5.70;42.85;96092.88;5075688;28;20485;-56
2022/03/23 04:45:09;;;;;;;12.83;4.30;;;5.70;51.60;;;5.75;43.13;96090.00;5067481;28;20981;-57
2022/03/23 04:47:38;;;;;;;7.47;3.93;;;5.80;51.80;;;5.77;42.83;96093.38;5070015;28;20473;-57
2022/03/23 04:50:08;;;;;;;13.47;4.73;;;5.80;51.50;;;5.81;42.80;96099.28;5075159;28;20486;-57
2022/03/23 04:52:36;;;;;;;15.70;4.40;;;5.90;51.70;;;5.84;42.85;96099.09;5067712;28;20473;-57
2022/03/23 04:55:04;;;;;;;12.67;4.40;;;5.90;51.80;;;5.86;42.94;96094.66;5072732;28;20798;-56
2022/03/23 04:57:33;;;;;;;6.13;4.07;;;5.90;51.70;;;5.88;42.73;96100.66;5079945;28;20539;-57
2022/03/23 05:00:00;;;;;;;11.90;5.20;;;6.00;51.80;;;5.90;43.00;96098.78;5074180;28;20449;-57
2022/03/23 05:02:27;;;;;;;12.20;4.40;;;6.00;51.90;;;5.89;43.34;96102.34;5065956;28;21013;-56
2022/03/23 05:04:55;;;;;;;11.10;5.23;;;6.00;52.20;;;5.88;43.29;96098.03;5081315;28;20454;-56
2022/03/23 05:07:22;;;;;;;16.77;5.50;;;6.00;52.20;;;5.84;43.42;96099.09;5058619;28;20500;-55
2022/03/23 05:09:49;;;;;;;9.30;5.07;;;5.90;52.10;;;5.81;43.13;96096.66;5070405;28;20962;-57
2022/03/23 05:12:17;;;;;;;12.57;5.07;;;5.90;52.10;;;5.74;43.68;96096.16;5076895;28;20893;-56
2022/03/23 05:14:45;;;;;;;18.17;7.17;;;5.80;52.60;;;5.71;43.49;96091.09;5071329;28;20470;-56
2022/03/23 05:17:13;;;;;;;12.77;5.70;;;5.80;52.20;;;5.68;43.72;96099.91;5073891;28;20482;-56
2022/03/23 05:19:40;;;;;;;15.33;6.17;;;5.80;52.50;;;5.65;43.80;96099.22;5074889;28;20463;-57
2022/03/23 05:22:08;;;;;;;18.40;6.47;;;5.80;52.90;;;5.63;43.86;96104.53;5069010;28;20753;-58
2022/03/23 05:24:36;;;;;;;11.40;5.90;;;5.70;52.80;;;5.62;43.72;96099.38;5066966;28;20562;-57
2022/03/23 05:27:03;;;;;;;8.67;5.27;;;5.70;52.80;;;5.58;44.23;96103.94;5074757;28;20478;-63
2022/03/23 05:29:31;;;;;;;11.40;4.47;;;5.70;52.90;;;5.57;44.28;96107.44;5064850;28;20459;-57
2022/03/23 05:31:59;;;;;;;17.27;5.33;;;5.70;53.30;;;5.57;44.02;96107.44;5073567;28;20474;-56
2022/03/23 05:34:26;;;;;;;11.63;4.90;;;5.70;53.10;;;5.59;44.19;96110.81;5064497;28;20466;-58
2022/03/23 05:36:54;;;;;;;15.90;5.63;;;5.70;53.40;;;5.62;44.34;96105.44;5067388;28;20470;-57
2022/03/23 05:39:21;;;;;;;6.93;4.73;;;5.70;53.60;;;5.67;44.11;96107.81;5072748;28;20862;-56
2022/03/23 05:41:48;;;;;;;9.00;5.40;;;5.80;53.40;;;5.70;44.58;96110.28;5069731;28;21066;-57
2022/03/23 05:44:16;;;;;;;10.50;5.30;;;5.80;53.70;;;5.73;44.44;96113.59;5058769;28;20463;-57
2022/03/23 05:46:43;;;;;;;11.83;5.90;;;5.80;54.00;;;5.77;44.47;96111.66;5079345;28;20478;-56
2022/03/23 05:49:12;;;;;;;15.00;5.73;;;5.80;53.90;;;5.84;44.95;96120.00;5064196;28;20462;-55
2022/03/23 05:51:39;;;;;;;11.57;5.40;;;5.90;54.50;;;5.90;44.52;96109.22;5067230;28;20481;-58
2022/03/23 05:54:06;;;;;;;11.70;6.10;;;6.00;54.20;;;6.00;44.65;96107.03;5070318;28;20455;-57
2022/03/23 05:56:33;;;;;;;14.10;4.87;;;6.00;54.10;;;6.10;44.74;96109.06;5074532;28;20474;-56
2022/03/23 05:59:01;;;;;;;17.80;7.87;;;6.10;54.40;;;6.24;44.87;96115.31;5065393;28;20458;-56
2022/03/23 06:01:28;;;;;;;30.03;5.87;;;6.20;54.40;;;6.41;44.64;96117.00;5063326;28;20577;-57
2022/03/23 06:03:55;;;;;;;21.03;5.77;;;6.40;54.50;;;6.58;44.96;96118.69;5069854;28;20588;-57
2022/03/23 06:06:24;;;;;;;14.60;4.50;;;6.60;55.10;;;6.74;44.17;96121.31;5072642;28;20985;-56
2022/03/23 06:08:51;;;;;;;12.90;4.90;;;6.70;54.30;;;6.91;44.27;96125.59;5077655;28;20858;-56
2022/03/23 06:11:18;;;;;;;11.97;5.30;;;6.90;55.20;;;7.11;43.67;96122.72;5063873;28;20452;-57
2022/03/23 06:13:46;;;;;;;14.60;5.23;;;7.00;53.80;;;7.34;43.35;96125.75;5071634;28;20459;-56
2022/03/23 06:16:14;;;;;;;10.20;3.97;;;7.20;53.60;;;7.57;43.02;96116.56;5078380;28;20450;-57
2022/03/23 06:18:41;;;;;;;4.83;4.00;;;7.50;53.60;;;7.78;43.60;96119.69;5068569;28;20686;-57
2022/03/23 06:21:08;;;;;;;12.47;3.67;;;7.70;53.40;;;7.99;42.92;96119.34;5071791;28;20466;-57
2022/03/23 06:23:37;;;;;;;10.80;3.50;;;7.90;52.70;;;8.11;43.13;96121.22;5072478;28;20527;-58
2022/03/23 06:26:05;;;;;;;8.03;3.53;;;8.00;52.60;;;8.28;43.11;96114.94;5070206;28;20470;-57
2022/03/23 06:28:33;;;;;;;10.97;4.90;;;8.20;52.20;;;8.44;41.78;96117.47;5073051;28;20498;-58
2022/03/23 06:31:00;;;;;;;18.90;5.00;;;8.30;51.80;;;8.58;42.03;96113.97;5074888;28;20504;-58
2022/03/23 06:33:27;;;;;;;12.93;5.10;;;8.40;51.40;;;8.75;41.56;96120.78;5069230;28;21448;-57
2022/03/23 06:35:55;;;;;;;12.40;4.60;;;8.60;51.60;;;8.86;41.73;96113.09;5070404;28;20474;-58
2022/03/23 06:38:22;;;;;;;7.83;3.47;;;8.70;51.20;;;9.01;41.46;96115.66;5075675;28;20476;-56
2022/03/23 06:40:51;;;;;;;12.73;4.40;;;8.80;50.70;;;9.11;40.65;96114.94;5070934;28;20458;-56
2022/03/23 06:43:18;;;;;;;6.37;3.83;;;8.90;50.50;;;9.22;41.13;96113.41;5075479;28;21010;-57
2022/03/23 06:45:46;;;;;;;10.33;3.60;;;9.00;50.50;;;9.38;40.90;96119.31;5075424;28;21054;-58
2022/03/23 06:48:13;;;;;;;7.30;3.87;;;9.20;50.20;;;9.50;40.53;96128.19;5070590;28;20473;-57
2022/03/23 06:50:40;;;;;;;8.33;3.87;;;9.30;50.10;;;9.68;40.67;96119.06;5069687;28;20458;-56
2022/03/23 06:53:08;;;;;;;8.40;3.80;;;9.50;50.00;;;9.85;40.22;96122.31;5055361;28;20487;-57
2022/03/23 06:55:35;;;;;;;9.00;4.20;;;9.60;49.60;;;9.96;39.28;96127.72;5067508;28;20450;-58
2022/03/23 06:58:04;;;;;;;9.03;3.50;;;9.80;48.90;;;10.12;39.12;96116.97;5074957;28;20506;-57
2022/03/23 07:00:31;;;;;;;4.03;3.23;;;9.90;48.70;;;10.28;38.20;96134.31;5072503;28;20518;-57
2022/03/23 07:02:59;;;;;;;16.47;3.77;;;10.00;46.60;;;10.44;39.01;96123.59;5068740;28;20486;-57
2022/03/23 07:05:26;;;;;;;10.07;3.63;;;10.20;47.20;;;10.64;38.65;96125.66;5079047;28;20505;-58
2022/03/23 07:10:38;;;;;;;5.03;3.30;;;10.60;46.90;;;11.06;38.21;96144.59;5069764;28;20410;-58
2022/03/23 07:13:07;;;;;;;4.90;3.37;;;10.80;46.50;;;11.29;37.64;96137.66;5075403;28;20549;-58
2022/03/23 07:15:34;;;;;;;8.53;3.17;;;11.00;46.10;;;11.57;37.48;96142.66;5061919;28;20454;-58
2022/03/23 07:18:01;;;;;;;8.10;3.17;;;11.30;45.90;;;11.95;37.06;96133.69;5072222;28;20465;-57
2022/03/23 07:20:29;;;;;;;6.57;3.30;;;11.60;45.40;;;12.32;36.34;96138.78;5075819;28;20454;-57
2022/03/23 07:22:56;;;;;;;8.90;3.10;;;12.00;44.50;;;12.58;35.27;96130.59;5066627;28;20584;-57
2022/03/23 07:25:23;;;;;;;7.40;3.47;;;12.30;43.80;;;12.84;35.52;96126.75;5076119;28;20641;-57
2022/03/23 07:27:51;;;;;;;15.00;3.00;;;12.50;43.50;;;13.15;34.48;96123.41;5071846;28;20466;-57
2022/03/23 07:30:20;;;;;;;9.40;3.33;;;12.80;42.70;;;13.43;33.86;96149.31;5069509;28;20454;-59
2022/03/23 07:32:47;;;;;;;5.97;2.70;;;13.10;42.70;;;13.59;33.33;96125.09;5075673;28;20621;-56
2022/03/23 07:35:14;;;;;;;7.40;2.90;;;13.30;41.50;;;13.77;33.71;96135.09;5072027;28;20455;-57
2022/03/23 07:37:42;;;;;;;8.10;4.23;;;13.40;41.30;;;13.96;33.11;96129.13;5071295;28;20993;-56
2022/03/23 07:40:11;;;;;;;6.23;3.40;;;13.60;41.40;;;14.13;33.35;96127.69;5079840;28;20453;-58
2022/03/23 07:42:38;;;;;;;12.43;3.17;;;13.80;41.10;;;14.31;33.17;96136.69;5073937;28;21025;-56
2022/03/23 07:45:07;;;;;;;7.87;3.63;;;14.00;40.90;;;14.49;32.62;96141.38;5076629;28;20450;-57
2022/03/23 07:47:36;;;;;;;3.30;2.63;;;14.20;40.30;;;14.38;31.84;96141.47;5073573;28;20469;-57
2022/03/23 07:50:04;;;;;;;6.87;3.30;;;14.20;38.80;;;14.41;31.50;96130.63;5067846;28;20929;-57
2022/03/23 07:52:31;;;;;;;12.33;4.57;;;14.20;38.40;;;14.59;31.29;96136.94;5074969;28;20467;-57
2022/03/23 07:55:00;;;;;;;6.33;3.07;;;14.50;39.00;;;14.81;31.48;96119.19;5080857;28;20459;-58
2022/03/23 07:57:27;;;;;;;9.80;2.73;;;14.80;39.30;;;14.84;31.40;96134.81;5078330;28;20478;-57
2022/03/23 07:59:56;;;;;;;6.87;3.00;;;14.90;38.30;;;14.56;31.25;96141.66;5075160;28;20576;-57
2022/03/23 08:02:24;;;;;;;12.10;2.83;;;14.70;37.40;;;14.22;31.79;96134.84;5077835;28;20490;-56
2022/03/23 08:04:53;;;;;;;8.67;2.40;;;14.50;38.00;;;14.03;32.06;96135.53;5068287;28;20517;-58
2022/03/23 08:07:20;;;;;;;9.20;3.90;;;14.20;38.20;;;14.02;32.14;96125.09;5076469;28;20462;-59
2022/03/23 08:09:47;;;;;;;5.80;3.07;;;14.20;38.80;;;14.27;32.28;96142.38;5081921;28;20512;-58
2022/03/23 08:12:17;;;;;;;4.83;3.13;;;14.20;38.80;;;14.53;31.55;96129.53;5069774;28;21055;-58
2022/03/23 08:14:45;;;;;;;19.87;4.97;;;14.50;38.50;;;14.78;31.54;96125.63;5076322;28;20884;-57
2022/03/23 08:17:12;;;;;;;10.80;3.13;;;14.70;37.80;;;15.06;29.86;96120.53;5076084;28;20544;-56
2022/03/23 08:19:39;;;;;;;12.10;3.27;;;15.00;37.00;;;15.40;30.39;96118.34;5070874;28;20450;-58
2022/03/23 08:22:09;;;;;;;7.17;2.63;;;15.30;37.70;;;15.78;31.52;96105.22;5076637;28;21096;-58
2022/03/23 08:24:36;;;;;;;8.77;4.43;;;15.60;38.80;;;16.19;30.82;96118.28;5084706;28;20446;-59
2022/03/23 08:27:04;;;;;;;4.23;3.07;;;16.00;38.00;;;16.41;29.47;96115.28;5070635;28;20487;-58
2022/03/23 08:29:31;;;;;;;10.03;3.40;;;16.30;37.10;;;16.42;28.09;96126.72;5076861;28;20451;-58
2022/03/23 08:31:58;;;;;;;7.27;2.83;;;16.40;34.30;;;16.43;29.46;96121.28;5072576;28;20480;-59
2022/03/23 08:34:26;;;;;;;8.67;3.13;;;16.40;35.50;;;16.54;29.30;96108.81;5071605;28;20447;-58
2022/03/23 08:36:53;;;;;;;18.80;3.70;;;16.50;35.70;;;16.58;27.38;96118.16;5074404;28;21002;-58
2022/03/23 08:39:22;;;;;;;9.07;3.70;;;16.60;33.40;;;16.65;28.36;96116.56;5075157;28;20509;-57
2022/03/23 08:41:49;;;;;;;8.70;3.67;;;16.60;35.10;;;16.69;27.13;96120.63;5070122;28;20462;-57
2022/03/23 08:44:17;;;;;;;8.53;3.60;;;16.60;33.70;;;16.63;27.43;96114.06;5074864;28;20449;-56
2022/03/23 08:46:45;;;;;;;10.93;3.60;;;16.50;32.90;;;16.66;27.72;96107.63;5077147;28;20910;-58
2022/03/23 08:49:12;;;;;;;8.87;3.53;;;16.50;33.80;;;16.72;27.93;96123.00;5070890;28;20499;-57
2022/03/23 08:51:40;;;;;;;9.70;3.87;;;16.50;34.00;;;16.81;27.83;96116.78;5077903;28;20581;-58
2022/03/23 08:54:07;;;;;;;9.37;3.97;;;16.50;34.40;;;16.74;27.61;96118.34;5077086;28;20447;-58
2022/03/23 08:56:36;;;;;;;8.93;3.87;;;16.40;34.10;;;16.66;27.60;96123.56;5071027;28;20877;-58
2022/03/23 08:59:03;;;;;;;3.43;3.13;;;16.30;33.60;;;16.68;28.11;96126.91;5077206;28;20700;-58
2022/03/23 09:01:31;;;;;;;10.10;4.13;;;16.30;34.60;;;16.76;27.68;96111.09;5070932;28;20451;-58
2022/03/23 09:04:03;;;;;;;14.70;3.47;;;16.30;34.80;;;16.69;27.46;96112.66;5072508;28;20565;-59
2022/03/23 09:06:31;;;;;;;10.20;3.97;;;16.20;33.80;;;16.62;27.28;96111.56;5078368;28;20527;-58
2022/03/23 09:08:59;;;;;;;8.50;3.10;;;16.20;33.50;;;16.46;27.34;96113.03;5074272;28;20482;-58
2022/03/23 09:11:26;;;;;;;4.57;3.33;;;16.00;33.20;;;16.44;26.89;96115.00;5073356;28;20461;-57
2022/03/23 09:13:55;;;;;;;8.00;3.73;;;16.00;32.90;;;16.40;26.71;96116.25;5081660;28;20454;-58
2022/03/23 09:16:22;;;;;;;5.27;2.77;;;16.00;32.60;;;16.35;26.87;96110.56;5068868;28;20447;-58
2022/03/23 09:18:49;;;;;;;4.33;3.00;;;15.90;33.30;;;16.31;27.29;96114.47;5075675;28;20450;-57
2022/03/23 09:21:17;;;;;;;6.10;3.33;;;15.90;33.50;;;16.39;27.96;96111.94;5074688;28;20458;-58
2022/03/23 09:23:44;;;;;;;4.87;3.60;;;15.90;34.50;;;16.31;27.35;96120.63;5065719;28;21033;-58
2022/03/23 09:26:12;;;;;;;7.23;3.73;;;15.90;33.70;;;16.20;27.49;96112.81;5074282;28;20446;-59
2022/03/23 09:28:40;;;;;;;6.50;3.13;;;15.80;33.50;;;16.23;27.40;96112.53;5072293;28;20507;-58
2022/03/23 09:31:08;;;;;;;11.27;3.30;;;15.70;33.40;;;16.25;27.86;96096.47;5069746;28;20941;-58
2022/03/23 09:33:36;;;;;;;7.80;2.83;;;15.80;34.40;;;16.24;26.64;96108.09;5076056;28;20469;-58
2022/03/23 09:36:03;;;;;;;8.27;3.60;;;15.80;33.10;;;16.13;27.64;96104.59;5074783;28;20442;-58
2022/03/23 09:38:30;;;;;;;21.93;4.83;;;15.80;33.80;;;16.15;27.83;96115.06;5071030;28;20466;-58
2022/03/23 09:40:58;;;;;;;9.17;3.77;;;15.70;34.00;;;16.01;27.66;96110.22;5076745;28;20826;-58
2022/03/23 09:43:26;;;;;;;17.03;3.67;;;15.60;33.70;;;15.90;27.98;96120.00;5074239;28;21042;-58
2022/03/23 09:45:53;;;;;;;7.20;3.33;;;15.50;34.20;;;15.89;28.23;96115.69;5070642;28;20446;-58
2022/03/23 09:48:25;;;;;;;8.80;3.80;;;15.50;34.20;;;15.97;28.48;96114.97;5075208;28;20477;-57
2022/03/23 09:50:54;;;;;;;7.57;2.70;;;15.50;34.40;;;15.99;27.72;96106.88;5074803;28;20450;-58
2022/03/23 09:53:23;;;;;;;12.30;4.10;;;15.60;34.30;;;15.92;28.00;96110.09;5065062;28;20563;-58
2022/03/23 09:55:50;;;;;;;12.00;3.30;;;15.50;34.20;;;15.92;28.16;96106.59;5077855;28;20458;-58
2022/03/23 09:58:18;;;;;;;3.77;2.37;;;15.50;34.20;;;15.96;27.57;96105.34;5065297;28;20557;-58
2022/03/23 10:00:45;;;;;;;4.83;3.03;;;15.60;34.30;;;15.89;28.18;96105.06;5072828;28;20610;-57
2022/03/23 10:04:06;;;;;;;6.33;3.27;;;15.50;34.20;;;15.90;27.37;96093.47;5075195;28;20495;-58
2022/03/23 10:07:07;;;;;;;6.60;4.03;;;15.50;34.20;;;15.79;27.17;96090.16;5066933;28;21087;-58
2022/03/23 10:10:35;;;;;;;7.73;3.37;;;15.40;33.10;;;15.56;27.56;96095.72;5073477;28;20940;-58
2022/03/23 10:13:58;;;;;;;7.57;3.73;;;15.30;33.40;;;15.45;27.91;96094.06;5066045;28;20562;-58
2022/03/23 10:17:10;;;;;;;9.40;2.93;;;15.20;34.00;;;15.47;27.88;96085.97;5076891;28;20453;-58
2022/03/23 10:19:43;;;;;;;12.20;3.30;;;15.20;34.00;;;15.56;28.48;96082.47;5063582;28;20451;-58
2022/03/23 10:22:12;;;;;;;4.07;2.93;;;15.20;34.60;;;15.62;28.08;96079.25;5067979;28;20473;-58
2022/03/23 10:24:40;;;;;;;11.07;2.90;;;15.20;34.00;;;15.60;27.53;96081.22;5077952;28;20442;-58
2022/03/23 10:27:12;;;;;;;5.70;2.73;;;15.30;33.60;;;15.53;27.63;96072.16;5071590;28;20562;-57
2022/03/23 10:29:45;;;;;;;10.63;3.73;;;15.20;33.40;;;15.50;27.62;96077.72;5074236;28;20496;-58
2022/03/23 10:32:13;;;;;;;3.83;2.20;;;15.20;33.60;;;15.42;27.68;96084.56;5073549;28;20463;-58
2022/03/23 10:34:49;;;;;;;13.80;3.63;;;15.10;33.30;;;15.32;27.68;96072.28;5060188;28;20474;-58
2022/03/23 10:37:24;;;;;;;8.10;3.50;;;15.10;33.40;;;15.14;26.63;96058.91;5070836;28;20463;-58
2022/03/23 10:39:51;;;;;;;6.60;3.00;;;14.90;31.80;;;14.97;27.21;96066.53;5080697;28;20441;-58
2022/03/23 10:42:20;;;;;;;8.73;2.80;;;14.70;32.60;;;14.87;27.50;96057.72;5066854;28;20482;-59